createdAt,value
2023-02-17T00:01:33.416Z,45.80
2023-02-17T00:04:00.834Z,45.90
2023-02-17T00:06:30.365Z,46.70
2023-02-17T00:08:58.212Z,46.50
2023-02-17T00:11:25.082Z,46.60
2023-02-17T00:13:54.547Z,46.70
2023-02-17T00:16:26.283Z,46.60
2023-02-17T00:19:00.781Z,46.40
2023-02-17T00:21:32.509Z,46.50
2023-02-17T00:24:00.557Z,45.90
2023-02-17T00:26:27.556Z,46.60
2023-02-17T00:28:54.550Z,46.60
2023-02-17T00:31:23.388Z,46.60
2023-02-17T00:33:50.469Z,46.50
2023-02-17T00:36:20.148Z,46.70
2023-02-17T00:38:49.060Z,46.20
2023-02-17T00:41:20.366Z,46.70
2023-02-17T00:43:48.813Z,46.10
2023-02-17T00:46:18.044Z,46.60
2023-02-17T00:48:47.205Z,46.60
2023-02-17T00:51:16.812Z,46.70
2023-02-17T00:53:44.153Z,46.50
2023-02-17T00:56:11.439Z,46.80
2023-02-17T00:58:39.363Z,46.80
2023-02-17T01:01:06.147Z,46.80
2023-02-17T01:03:33.605Z,46.80
2023-02-17T01:06:06.863Z,46.80
2023-02-17T01:08:34.261Z,46.80
2023-02-17T01:11:01.509Z,46.80
2023-02-17T01:13:28.467Z,46.80
2023-02-17T01:15:55.324Z,46.80
2023-02-17T01:18:24.130Z,46.90
2023-02-17T01:20:52.674Z,46.70
2023-02-17T01:23:20.196Z,46.90
2023-02-17T01:25:47.925Z,46.90
2023-02-17T01:28:20.452Z,46.80
2023-02-17T01:30:48.599Z,46.60
2023-02-17T01:33:15.668Z,46.90
2023-02-17T01:35:42.605Z,46.90
2023-02-17T01:38:09.628Z,46.80
2023-02-17T01:40:36.564Z,46.80
2023-02-17T01:43:04.038Z,46.90
2023-02-17T01:45:41.559Z,46.80
2023-02-17T01:48:21.290Z,46.60
2023-02-17T01:50:59.364Z,45.70
2023-02-17T01:53:35.501Z,46.50
2023-02-17T01:56:05.084Z,46.60
2023-02-17T01:58:33.414Z,47.00
2023-02-17T02:01:04.797Z,47.10
2023-02-17T02:03:35.815Z,47.20
2023-02-17T02:06:10.663Z,47.20
2023-02-17T02:08:56.335Z,47.20
2023-02-17T02:11:23.126Z,46.90
2023-02-17T02:13:51.586Z,47.40
2023-02-17T02:16:38.666Z,47.20
2023-02-17T02:19:42.778Z,47.30
2023-02-17T02:22:49.377Z,45.70
2023-02-17T02:26:09.308Z,45.80
2023-02-17T02:29:03.712Z,45.80
2023-02-17T02:32:04.580Z,46.00
2023-02-17T02:34:47.596Z,45.80
2023-02-17T02:37:24.848Z,46.80
2023-02-17T02:39:54.985Z,47.00
2023-02-17T02:42:24.870Z,47.30
2023-02-17T02:44:51.942Z,47.20
2023-02-17T02:47:42.725Z,47.60
2023-02-17T02:50:15.031Z,45.80
2023-02-17T02:53:21.050Z,47.30
2023-02-17T02:56:09.553Z,46.40
2023-02-17T02:58:50.675Z,47.00
2023-02-17T03:01:47.979Z,47.60
2023-02-17T03:04:46.151Z,45.80
2023-02-17T03:07:21.239Z,45.90
2023-02-17T03:09:54.783Z,47.20
2023-02-17T03:12:23.633Z,46.90
2023-02-17T03:14:58.636Z,47.40
2023-02-17T03:17:25.624Z,47.30
2023-02-17T03:19:52.871Z,47.40
2023-02-17T03:22:31.461Z,47.50
2023-02-17T03:25:00.183Z,46.60
2023-02-17T03:27:28.110Z,47.40
2023-02-17T03:29:55.087Z,47.40
2023-02-17T03:32:22.332Z,47.40
2023-02-17T03:34:49.334Z,47.40
2023-02-17T03:37:16.585Z,47.30
2023-02-17T03:39:43.469Z,47.40
2023-02-17T03:42:11.195Z,47.30
2023-02-17T03:44:38.104Z,47.30
2023-02-17T03:47:05.286Z,47.30
2023-02-17T03:49:32.108Z,47.20
2023-02-17T03:51:59.469Z,47.20
2023-02-17T03:54:27.531Z,47.20
2023-02-17T03:56:54.604Z,47.10
2023-02-17T03:59:21.541Z,47.20
2023-02-17T04:01:48.390Z,47.10
2023-02-17T04:04:15.443Z,47.10
2023-02-17T04:06:42.409Z,47.10
2023-02-17T04:09:09.323Z,47.00
2023-02-17T04:11:36.302Z,46.90
2023-02-17T04:14:03.830Z,46.90
2023-02-17T04:16:30.778Z,46.90
2023-02-17T04:18:57.620Z,46.90
2023-02-17T04:21:24.553Z,46.90
2023-02-17T04:23:51.406Z,46.80
2023-02-17T04:26:18.266Z,46.80
2023-02-17T04:28:45.207Z,46.80
2023-02-17T04:31:12.170Z,46.80
2023-02-17T04:33:39.131Z,46.70
2023-02-17T04:36:06.695Z,46.60
2023-02-17T04:38:34.517Z,46.60
2023-02-17T04:41:02.391Z,46.60
2023-02-17T04:43:29.797Z,46.50
2023-02-17T04:45:57.130Z,46.50
2023-02-17T04:48:25.502Z,46.50
2023-02-17T04:50:53.141Z,46.50
2023-02-17T04:53:20.752Z,46.50
2023-02-17T04:55:52.537Z,46.40
2023-02-17T04:58:20.737Z,45.80
2023-02-17T05:00:50.122Z,46.40
2023-02-17T05:03:18.688Z,46.30
2023-02-17T05:05:45.629Z,46.40
2023-02-17T05:08:12.459Z,46.30
2023-02-17T05:10:39.335Z,46.20
2023-02-17T05:13:06.170Z,46.20
2023-02-17T05:15:34.875Z,46.20
2023-02-17T05:18:02.972Z,46.20
2023-02-17T05:20:30.002Z,46.20
2023-02-17T05:22:56.974Z,46.10
2023-02-17T05:25:23.800Z,46.20
2023-02-17T05:27:50.638Z,46.10
2023-02-17T05:30:17.636Z,46.10
2023-02-17T05:32:44.587Z,46.10
2023-02-17T05:35:11.995Z,46.20
2023-02-17T05:37:39.043Z,46.20
2023-02-17T05:40:07.291Z,46.10
2023-02-17T05:42:34.242Z,46.10
2023-02-17T05:45:01.517Z,46.20
2023-02-17T05:47:28.520Z,46.10
2023-02-17T05:49:55.454Z,46.10
2023-02-17T05:52:22.335Z,45.90
2023-02-17T05:54:49.388Z,45.80
2023-02-17T05:57:16.333Z,45.90
2023-02-17T05:59:43.180Z,45.80
2023-02-17T06:02:10.235Z,45.90
2023-02-17T06:04:37.330Z,45.70
2023-02-17T06:07:04.266Z,45.70
2023-02-17T06:09:31.196Z,45.70
2023-02-17T06:11:58.110Z,45.70
2023-02-17T06:14:25.003Z,45.70
2023-02-17T06:16:51.920Z,45.70
2023-02-17T06:19:18.753Z,45.70
2023-02-17T06:21:45.607Z,45.70
2023-02-17T06:24:12.458Z,45.70
2023-02-17T06:26:39.440Z,45.70
2023-02-17T06:29:06.987Z,45.70
2023-02-17T06:31:34.053Z,45.70
2023-02-17T06:34:01.051Z,45.80
2023-02-17T06:36:27.979Z,45.80
2023-02-17T06:38:54.916Z,45.90
2023-02-17T06:41:21.786Z,46.20
2023-02-17T06:43:48.930Z,46.30
2023-02-17T06:46:18.781Z,46.40
2023-02-17T06:48:45.618Z,46.30
2023-02-17T06:51:12.517Z,46.50
2023-02-17T06:53:39.356Z,46.70
2023-02-17T06:56:06.856Z,46.90
2023-02-17T06:58:36.265Z,47.40
2023-02-17T07:01:04.201Z,48.00
2023-02-17T07:03:32.774Z,48.80
2023-02-17T07:06:00.932Z,49.30
2023-02-17T07:08:27.760Z,49.80
2023-02-17T07:10:54.655Z,50.20
2023-02-17T07:13:21.482Z,50.50
2023-02-17T07:15:48.377Z,51.00
2023-02-17T07:18:15.244Z,51.40
2023-02-17T07:20:42.044Z,51.60
2023-02-17T07:23:08.869Z,51.50
2023-02-17T07:25:35.793Z,51.10
2023-02-17T07:28:02.639Z,50.90
2023-02-17T07:30:29.722Z,50.60
2023-02-17T07:32:56.685Z,50.50
2023-02-17T07:35:23.600Z,50.30
2023-02-17T07:37:51.654Z,50.00
2023-02-17T07:40:19.195Z,50.00
2023-02-17T07:42:46.068Z,49.80
2023-02-17T07:45:12.993Z,49.70
2023-02-17T07:47:39.844Z,49.70
2023-02-17T07:50:07.724Z,49.60
2023-02-17T07:52:34.655Z,49.50
2023-02-17T07:55:01.572Z,50.00
2023-02-17T07:57:28.487Z,50.00
2023-02-17T07:59:55.370Z,49.80
2023-02-17T08:02:22.621Z,49.80
2023-02-17T08:04:49.678Z,49.50
2023-02-17T08:07:16.490Z,49.30
2023-02-17T08:10:01.832Z,49.20
2023-02-17T08:12:47.242Z,49.20
2023-02-17T08:15:14.225Z,49.20
2023-02-17T08:17:41.146Z,49.10
2023-02-17T08:20:09.422Z,49.00
2023-02-17T08:22:37.129Z,49.00
2023-02-17T08:25:06.220Z,49.00
2023-02-17T08:27:33.448Z,48.90
2023-02-17T08:30:00.697Z,49.00
2023-02-17T08:32:27.695Z,49.00
2023-02-17T08:34:58.010Z,49.10
2023-02-17T08:37:25.371Z,48.90
2023-02-17T08:39:52.357Z,49.10
2023-02-17T08:42:19.843Z,49.20
2023-02-17T08:44:46.703Z,49.30
2023-02-17T08:47:13.572Z,49.30
2023-02-17T08:49:40.828Z,49.20
2023-02-17T08:52:07.723Z,49.30
2023-02-17T08:54:34.796Z,49.30
2023-02-17T08:57:01.855Z,49.40
2023-02-17T08:59:28.838Z,49.50
2023-02-17T09:01:55.836Z,49.40
2023-02-17T09:04:22.817Z,49.30
2023-02-17T09:06:55.102Z,49.30
2023-02-17T09:09:28.047Z,49.30
2023-02-17T09:11:57.950Z,49.50
2023-02-17T09:14:25.200Z,49.50
2023-02-17T09:16:54.191Z,49.70
2023-02-17T09:19:22.062Z,49.70
2023-02-17T09:21:49.662Z,49.90
2023-02-17T09:24:18.353Z,50.00
2023-02-17T09:26:45.830Z,50.20
2023-02-17T09:29:13.031Z,50.30
2023-02-17T09:31:40.196Z,50.10
2023-02-17T09:34:07.220Z,50.10
2023-02-17T09:36:40.699Z,50.00
2023-02-17T09:39:12.251Z,50.50
2023-02-17T09:41:50.078Z,51.40
2023-02-17T09:44:26.231Z,52.20
2023-02-17T09:47:10.218Z,52.90
2023-02-17T09:49:44.736Z,52.80
2023-02-17T09:52:40.458Z,53.90
2023-02-17T09:55:16.731Z,52.90
2023-02-17T09:57:56.497Z,53.70
2023-02-17T10:00:38.558Z,53.10
2023-02-17T10:03:16.608Z,52.30
2023-02-17T10:06:20.046Z,53.50
2023-02-17T10:08:59.307Z,52.40
2023-02-17T10:11:39.405Z,52.10
2023-02-17T10:14:31.000Z,51.80
2023-02-17T10:17:08.294Z,51.30
2023-02-17T10:19:49.396Z,51.50
2023-02-17T10:22:22.476Z,51.50
2023-02-17T10:24:49.685Z,51.50
2023-02-17T10:27:43.058Z,52.00
2023-02-17T10:30:40.390Z,51.60
2023-02-17T10:33:58.540Z,50.40
2023-02-17T10:36:52.078Z,50.50
2023-02-17T10:39:24.684Z,50.40
2023-02-17T10:41:55.028Z,50.40
2023-02-17T10:44:25.006Z,50.40
2023-02-17T10:46:54.458Z,50.00
2023-02-17T10:49:35.844Z,49.80
2023-02-17T10:52:18.792Z,49.10
2023-02-17T10:55:20.975Z,49.10
2023-02-17T10:57:58.018Z,49.10
2023-02-17T11:00:24.950Z,49.10
2023-02-17T11:02:52.449Z,48.90
2023-02-17T11:05:31.522Z,48.60
2023-02-17T11:08:21.349Z,47.40
2023-02-17T11:11:13.476Z,48.50
2023-02-17T11:14:06.372Z,47.70
2023-02-17T11:16:39.492Z,48.20
2023-02-17T11:19:29.606Z,48.20
2023-02-17T11:21:59.851Z,48.10
2023-02-17T11:24:29.145Z,48.10
2023-02-17T11:26:59.455Z,47.40
2023-02-17T11:29:27.996Z,46.90
2023-02-17T11:31:59.352Z,47.50
2023-02-17T11:34:33.012Z,47.60
2023-02-17T11:37:24.440Z,47.20
2023-02-17T11:39:53.591Z,47.20
2023-02-17T11:42:33.221Z,47.80
2023-02-17T11:45:22.148Z,47.20
2023-02-17T11:48:11.344Z,47.30
2023-02-17T11:51:08.792Z,46.60
2023-02-17T11:54:02.988Z,46.90
2023-02-17T11:56:40.809Z,46.90
2023-02-17T11:59:51.437Z,45.90
2023-02-17T12:02:42.939Z,46.20
2023-02-17T12:05:09.708Z,46.60
2023-02-17T12:07:54.484Z,46.90
2023-02-17T12:10:30.462Z,46.90
2023-02-17T12:14:07.852Z,46.60
2023-02-17T12:16:52.020Z,46.20
2023-02-17T12:20:02.332Z,46.30
2023-02-17T12:23:02.906Z,46.50
2023-02-17T12:25:54.534Z,47.00
2023-02-17T12:28:48.701Z,46.70
2023-02-17T12:32:13.665Z,47.40
2023-02-17T12:34:49.912Z,46.60
2023-02-17T12:37:25.819Z,47.00
2023-02-17T12:40:02.189Z,47.00
2023-02-17T12:42:43.775Z,46.40
2023-02-17T12:45:13.403Z,46.50
2023-02-17T12:48:09.971Z,46.80
2023-02-17T12:51:28.374Z,46.60
2023-02-17T12:54:17.694Z,47.00
2023-02-17T12:57:10.269Z,47.40
2023-02-17T12:59:41.492Z,47.00
2023-02-17T13:02:25.307Z,47.60
2023-02-17T13:04:57.876Z,47.60
2023-02-17T13:07:52.220Z,48.10
2023-02-17T13:10:36.889Z,48.00
2023-02-17T13:13:33.595Z,47.80
2023-02-17T13:16:14.210Z,47.90
2023-02-17T13:18:49.360Z,47.90
2023-02-17T13:21:24.857Z,48.20
2023-02-17T13:24:30.209Z,48.00
2023-02-17T13:26:57.168Z,47.70
2023-02-17T13:29:23.963Z,48.40
2023-02-17T13:31:50.847Z,48.60
2023-02-17T13:34:35.615Z,48.70
2023-02-17T13:37:37.620Z,48.50
2023-02-17T13:40:16.418Z,48.10
2023-02-17T13:42:49.051Z,48.40
2023-02-17T13:45:40.792Z,48.60
2023-02-17T13:48:25.055Z,48.50
2023-02-17T13:51:00.613Z,48.40
2023-02-17T13:53:37.450Z,49.20
2023-02-17T13:56:25.774Z,49.10
2023-02-17T13:58:52.852Z,48.80
2023-02-17T14:01:28.738Z,49.00
2023-02-17T14:03:56.708Z,48.70
2023-02-17T14:06:42.242Z,49.20
2023-02-17T14:09:34.735Z,48.90
2023-02-17T14:12:06.629Z,49.20
2023-02-17T14:14:37.823Z,49.40
2023-02-17T14:17:13.269Z,49.50
2023-02-17T14:19:48.945Z,49.60
2023-02-17T14:22:35.208Z,49.60
2023-02-17T14:25:09.016Z,49.30
2023-02-17T14:27:48.606Z,49.80
2023-02-17T14:30:39.704Z,49.60
2023-02-17T14:33:16.157Z,49.90
2023-02-17T14:36:03.887Z,49.80
2023-02-17T14:38:39.866Z,49.60
2023-02-17T14:41:09.909Z,50.10
2023-02-17T14:43:37.246Z,50.10
2023-02-17T14:46:04.684Z,50.20
2023-02-17T14:48:31.516Z,50.40
2023-02-17T14:50:58.785Z,50.30
2023-02-17T14:53:28.533Z,50.40
2023-02-17T14:56:06.981Z,50.40
2023-02-17T14:58:34.469Z,50.10
2023-02-17T15:01:01.461Z,50.40
2023-02-17T15:03:32.092Z,50.40
2023-02-17T15:06:00.760Z,50.30
2023-02-17T15:08:34.913Z,50.30
2023-02-17T15:11:02.909Z,49.90
2023-02-17T15:13:31.826Z,50.30
2023-02-17T15:15:59.383Z,50.30
2023-02-17T15:18:28.040Z,50.10
2023-02-17T15:20:55.532Z,50.20
2023-02-17T15:23:26.281Z,50.20
2023-02-17T15:25:55.972Z,50.10
2023-02-17T15:28:22.975Z,50.10
2023-02-17T15:30:54.580Z,50.30
2023-02-17T15:33:24.335Z,50.60
2023-02-17T15:35:54.341Z,50.80
2023-02-17T15:38:22.887Z,50.80
2023-02-17T15:40:50.228Z,50.90
2023-02-17T15:43:21.836Z,52.20
2023-02-17T15:45:49.438Z,53.20
2023-02-17T15:48:30.077Z,54.60
2023-02-17T15:50:57.067Z,55.10
2023-02-17T15:53:23.971Z,57.00
2023-02-17T15:55:52.446Z,57.70
2023-02-17T15:58:23.020Z,58.40
2023-02-17T16:00:51.178Z,58.70
2023-02-17T16:03:18.857Z,59.30
2023-02-17T16:05:45.876Z,59.80
2023-02-17T16:08:12.734Z,60.10
2023-02-17T16:10:42.456Z,60.50
2023-02-17T16:13:15.203Z,60.70
2023-02-17T16:15:42.850Z,60.80
2023-02-17T16:18:23.340Z,61.50
2023-02-17T16:20:51.641Z,60.00
2023-02-17T16:23:18.750Z,61.90
2023-02-17T16:25:47.665Z,62.10
2023-02-17T16:28:22.118Z,62.20
2023-02-17T16:30:49.794Z,61.80
2023-02-17T16:33:17.899Z,62.60
2023-02-17T16:35:45.313Z,62.70
2023-02-17T16:38:19.883Z,62.70
2023-02-17T16:40:51.189Z,62.40
2023-02-17T16:43:22.508Z,62.80
2023-02-17T16:46:01.294Z,62.70
2023-02-17T16:48:32.319Z,62.70
2023-02-17T16:50:59.628Z,63.70
2023-02-17T16:53:26.899Z,64.20
2023-02-17T16:55:55.811Z,64.20
2023-02-17T16:58:25.917Z,63.90
2023-02-17T17:00:55.155Z,63.50
2023-02-17T17:03:24.942Z,63.60
2023-02-17T17:05:53.116Z,63.50
2023-02-17T17:08:21.925Z,63.90
2023-02-17T17:10:49.430Z,63.60
2023-02-17T17:13:16.751Z,63.80
2023-02-17T17:15:46.090Z,63.90
2023-02-17T17:18:21.127Z,64.00
2023-02-17T17:20:48.429Z,63.10
2023-02-17T17:23:16.290Z,64.40
2023-02-17T17:25:46.559Z,64.50
2023-02-17T17:28:16.781Z,64.40
2023-02-17T17:30:44.529Z,64.60
2023-02-17T17:33:11.529Z,64.80
2023-02-17T17:35:38.551Z,64.80
2023-02-17T17:38:05.572Z,64.90
2023-02-17T17:40:48.480Z,64.90
2023-02-17T17:43:21.609Z,64.70
2023-02-17T17:45:50.802Z,65.00
2023-02-17T17:48:18.630Z,65.30
2023-02-17T17:50:46.218Z,65.40
2023-02-17T17:53:13.115Z,65.40
2023-02-17T17:55:39.961Z,65.50
2023-02-17T17:58:07.016Z,65.60
2023-02-17T18:00:33.997Z,65.60
2023-02-17T18:03:00.823Z,65.60
2023-02-17T18:05:28.389Z,65.70
2023-02-17T18:07:56.344Z,65.50
2023-02-17T18:10:23.393Z,65.60
2023-02-17T18:12:50.508Z,65.50
2023-02-17T18:15:18.580Z,65.30
2023-02-17T18:17:47.852Z,65.40
2023-02-17T18:20:16.241Z,65.50
2023-02-17T18:22:44.005Z,65.60
2023-02-17T18:25:10.942Z,65.50
2023-02-17T18:27:44.896Z,65.50
2023-02-17T18:30:16.374Z,64.60
2023-02-17T18:32:44.341Z,65.20
2023-02-17T18:35:12.389Z,65.30
2023-02-17T18:37:41.117Z,65.00
2023-02-17T18:40:12.898Z,64.70
2023-02-17T18:42:42.446Z,64.30
2023-02-17T18:45:09.735Z,64.00
2023-02-17T18:47:37.160Z,63.70
2023-02-17T18:50:07.372Z,63.20
2023-02-17T18:52:34.239Z,63.00
2023-02-17T18:55:01.009Z,62.90
2023-02-17T18:57:27.893Z,62.60
2023-02-17T18:59:54.739Z,62.30
2023-02-17T19:02:22.058Z,62.00
2023-02-17T19:04:52.402Z,61.70
2023-02-17T19:07:19.994Z,61.60
2023-02-17T19:09:47.522Z,61.40
2023-02-17T19:12:14.460Z,61.10
2023-02-17T19:14:42.321Z,61.00
2023-02-17T19:17:10.744Z,60.90
2023-02-17T19:19:43.046Z,60.60
2023-02-17T19:22:09.891Z,60.50
2023-02-17T19:24:40.039Z,60.40
2023-02-17T19:27:07.683Z,60.30
2023-02-17T19:29:35.024Z,60.30
2023-02-17T19:32:03.873Z,60.20
2023-02-17T19:34:31.513Z,60.10
2023-02-17T19:36:58.429Z,60.10
2023-02-17T19:39:25.346Z,60.00
2023-02-17T19:41:52.222Z,60.00
2023-02-17T19:44:20.061Z,59.90
2023-02-17T19:46:47.111Z,59.90
2023-02-17T19:49:14.089Z,59.90
2023-02-17T19:51:41.012Z,59.80
2023-02-17T19:54:07.911Z,59.70
2023-02-17T19:56:36.276Z,59.70
2023-02-17T19:59:03.388Z,59.70
2023-02-17T20:01:33.850Z,59.70
2023-02-17T20:04:04.522Z,59.50
2023-02-17T20:06:37.712Z,59.50
2023-02-17T20:09:09.803Z,59.40
2023-02-17T20:11:37.812Z,59.30
2023-02-17T20:14:04.779Z,59.40
2023-02-17T20:16:31.949Z,59.30
2023-02-17T20:19:01.982Z,59.30
2023-02-17T20:21:32.098Z,59.20
2023-02-17T20:23:59.583Z,59.20
2023-02-17T20:26:33.515Z,59.20
2023-02-17T20:29:01.775Z,59.00
2023-02-17T20:31:28.962Z,59.00
2023-02-17T20:33:57.593Z,58.90
2023-02-17T20:36:25.111Z,59.00
2023-02-17T20:38:52.337Z,58.80
2023-02-17T20:41:21.742Z,58.90
2023-02-17T20:43:49.634Z,58.80
2023-02-17T20:46:29.160Z,58.80
2023-02-17T20:48:56.933Z,58.60
2023-02-17T20:51:24.142Z,58.70
2023-02-17T20:53:51.384Z,58.60
2023-02-17T20:56:22.431Z,58.70
2023-02-17T20:58:50.852Z,58.50
2023-02-17T21:01:18.234Z,58.50
2023-02-17T21:03:45.108Z,58.50
2023-02-17T21:06:35.544Z,58.50
2023-02-17T21:09:15.429Z,57.80
2023-02-17T21:11:42.998Z,57.80
2023-02-17T21:14:10.085Z,58.40
2023-02-17T21:16:37.691Z,58.20
2023-02-17T21:19:05.045Z,58.20
2023-02-17T21:21:32.464Z,58.10
2023-02-17T21:24:00.208Z,58.10
2023-02-17T21:26:27.541Z,58.10
2023-02-17T21:28:54.754Z,58.10
2023-02-17T21:31:21.818Z,58.00
2023-02-17T21:33:48.898Z,58.00
2023-02-17T21:36:17.822Z,58.00
2023-02-17T21:38:45.837Z,58.10
2023-02-17T21:41:18.087Z,58.10
2023-02-17T21:44:04.406Z,58.00
2023-02-17T21:46:32.530Z,58.10
2023-02-17T21:49:01.483Z,58.10
2023-02-17T21:51:28.473Z,58.00
2023-02-17T21:53:55.994Z,58.00
2023-02-17T21:56:23.687Z,58.00
2023-02-17T21:58:55.120Z,58.10
2023-02-17T22:01:25.251Z,58.10
2023-02-17T22:03:52.777Z,58.10
2023-02-17T22:06:26.291Z,58.20
2023-02-17T22:08:53.668Z,57.90
2023-02-17T22:11:24.926Z,58.10
2023-02-17T22:14:04.957Z,58.10
2023-02-17T22:16:35.053Z,57.70
2023-02-17T22:19:04.010Z,58.20
2023-02-17T22:21:31.347Z,58.30
2023-02-17T22:24:00.190Z,58.20
2023-02-17T22:26:29.082Z,58.30
2023-02-17T22:28:56.379Z,58.20
2023-02-17T22:31:27.169Z,58.20
2023-02-17T22:33:56.089Z,58.20
2023-02-17T22:36:24.374Z,58.10
2023-02-17T22:38:51.484Z,58.20
2023-02-17T22:41:23.762Z,58.20
2023-02-17T22:43:52.906Z,58.10
2023-02-17T22:46:23.475Z,58.10
2023-02-17T22:48:52.175Z,58.10
2023-02-17T22:51:30.101Z,58.20
2023-02-17T22:53:57.564Z,57.90
2023-02-17T22:56:24.587Z,58.20
2023-02-17T22:58:57.954Z,58.20
2023-02-17T23:01:29.059Z,58.20
2023-02-17T23:03:55.978Z,58.00
2023-02-17T23:06:33.707Z,58.20
2023-02-17T23:09:02.382Z,57.80
2023-02-17T23:11:50.553Z,58.20
2023-02-17T23:14:22.909Z,58.10
2023-02-17T23:16:50.623Z,58.00
2023-02-17T23:19:20.716Z,58.10
2023-02-17T23:21:52.703Z,58.10
2023-02-17T23:24:21.030Z,58.10
2023-02-17T23:26:48.537Z,58.20
2023-02-17T23:29:16.409Z,58.20
2023-02-17T23:31:43.385Z,58.20
2023-02-17T23:34:14.183Z,58.20
2023-02-17T23:36:42.753Z,58.20
2023-02-17T23:39:10.691Z,58.00
2023-02-17T23:41:38.835Z,58.20
2023-02-17T23:44:09.540Z,58.70
2023-02-17T23:46:37.617Z,58.20
2023-02-17T23:49:04.926Z,58.30
2023-02-17T23:51:32.405Z,58.30
2023-02-17T23:53:59.244Z,58.30
2023-02-17T23:56:35.644Z,58.30
2023-02-17T23:59:03.672Z,58.30
